Latest Coastal Weather Observations for King Island Airport

IDT60701

Issued at 4:22 am EST Tuesday 20 August 2019 (issued every 10 minutes, with the page automatically refreshed every 10 minutes)

About coastal observations | Map of coastal stations | Coastal observations for TAS | Marine services | Other Formats
Station Details ID: 098017 Name: KING ISLAND AIRPORT Lat: -39.88 Lon: 143.89 Height: 35.42 m
Data from the previous 72 hours. | See also: Recent months at King Island Airport
Date/Time
EST
Wind Sea
Height
m
Swell Vis
km
Cloud Weather Temp
°C
Press
hPa
Rain since
9am
mm
Dir  Spd
kts
Gust
kts
Height
m
Period
s
Dir
20/04:00am W 21 31 - - - - 10 Partly cloudy - 11.1 1017.8 1.2
20/03:35am W 21 31 - - - - 10 Partly cloudy - 10.7 1018.0 1.2
20/03:30am W 19 29 - - - - 10 Partly cloudy - 10.7 1018.1 1.2
20/03:20am W 23 33 - - - - 5 Partly cloudy - 10.6 1018.3 1.2
20/03:13am W 22 33 - - - - 10 Partly cloudy - 11.2 1018.2 1.2
20/03:00am W 21 28 - - - - 10 Cloudy - 11.0 1018.3 1.2
20/02:43am W 22 33 - - - - 10 Partly cloudy - 11.3 1018.4 1.2
20/02:30am W 23 31 - - - - 10 Partly cloudy - 11.3 1018.6 1.2
20/02:00am W 21 31 - - - - 10 Partly cloudy - 11.3 1018.7 1.2
20/01:30am W 21 32 - - - - 10 Partly cloudy - 11.1 1018.9 1.0
20/01:06am W 21 31 - - - - 10 Partly cloudy - 10.9 1019.0 1.0
20/01:00am W 22 31 - - - - 10 Partly cloudy - 10.9 1018.9 1.0
20/12:33am W 22 32 - - - - 10 Partly cloudy - 11.2 1019.0 1.0
20/12:30am W 23 32 - - - - 10 Partly cloudy - 11.2 1019.1 1.0
20/12:00am W 23 33 - - - - 10 Cloudy - 10.9 1019.1 1.0
 
Date/Time
EST
Wind Sea
Height
m
Swell Vis
km
Cloud Weather Temp
°C
Press
hPa
Rain since
9am
mm
Dir  Spd
kts
Gust
kts
Height
m
Period
s
Dir
19/11:48pm W 22 32 - - - - 10 Partly cloudy - 11.0 1019.1 1.0
19/11:30pm W 23 32 - - - - 10 Partly cloudy - 10.6 1019.4 1.0
19/11:00pm W 22 32 - - - - 10 Partly cloudy - 10.7 1019.2 1.0
19/10:30pm W 21 32 - - - - 10 Partly cloudy - 10.3 1019.4 1.0
19/10:00pm W 22 34 - - - - 10 Partly cloudy - 11.1 1019.5 1.0
19/09:30pm W 21 31 - - - - 10 Partly cloudy - 10.3 1019.6 1.0
19/09:06pm W 23 34 - - - - 10 Partly cloudy - 10.8 1019.3 1.0
19/09:00pm W 22 30 - - - - 10 Cloudy - 10.6 1019.3 1.0
19/08:33pm W 23 33 - - - - 10 Partly cloudy - 10.8 1019.2 1.0
19/08:30pm W 22 31 - - - - 10 Partly cloudy - 10.8 1019.0 1.0
19/08:02pm W 22 32 - - - - 10 Partly cloudy - 10.8 1018.9 1.0
19/08:00pm W 23 32 - - - - 10 Partly cloudy - 10.7 1018.9 1.0
19/07:30pm W 24 36 - - - - 10 Partly cloudy - 10.0 1018.8 1.0
19/07:00pm W 21 31 - - - - 10 Partly cloudy - 10.5 1018.6 1.0
19/06:38pm W 23 36 - - - - 10 Partly cloudy - 11.2 1018.3 1.0
19/06:30pm W 22 31 - - - - 10 Partly cloudy - 11.1 1018.3 1.0
19/06:02pm W 22 32 - - - - 10 Partly cloudy - 10.6 1018.2 1.0
19/06:00pm W 21 29 - - - - 10 Cloudy Showers 10.6 1018.2 1.0
19/05:30pm W 23 33 - - - - 10 Partly cloudy - 10.2 1018.0 1.0
19/05:01pm W 19 31 - - - - 10 Partly cloudy - 10.4 1017.6 1.0
19/05:00pm W 19 26 - - - - 10 Partly cloudy - 10.5 1017.6 1.0
19/04:32pm WSW 22 33 - - - - 10 Partly cloudy - 11.0 1017.4 1.0
19/04:30pm WSW 22 30 - - - - 10 Partly cloudy - 11.0 1017.4 1.0
19/04:00pm W 22 32 - - - - 10 Partly cloudy - 11.2 1017.2 1.0
19/03:40pm W 21 32 - - - - 10 Partly cloudy - 10.6 1016.9 1.0
19/03:30pm W 20 29 - - - - 10 Partly cloudy - 11.0 1016.8 1.0
19/03:00pm W 21 32 - - - - 10 Cloudy - 11.6 1016.8 1.0
19/02:55pm WSW 19 32 - - - - 10 Partly cloudy - 11.3 1016.7 1.0
19/02:30pm WSW 21 28 - - - - 10 Partly cloudy - 11.5 1016.5 1.0
19/02:20pm WSW 19 29 - - - - 10 Partly cloudy - 11.1 1016.5 1.0
19/02:00pm WSW 21 29 - - - - 10 Partly cloudy - 11.0 1016.5 1.0
19/01:34pm WSW 22 32 - - - - 10 Partly cloudy - 11.0 1016.4 1.0
19/01:30pm WSW 23 32 - - - - 10 Partly cloudy - 10.9 1016.5 1.0
19/01:23pm WSW 20 30 - - - - 10 Partly cloudy - 11.2 1016.4 1.0
19/01:00pm WSW 22 30 - - - - 10 Partly cloudy - 11.1 1016.3 1.0
19/12:54pm WSW 24 34 - - - - 10 Partly cloudy - 11.1 1016.3 1.0
19/12:30pm WSW 25 34 - - - - 10 Partly cloudy - 10.6 1016.2 1.0
19/12:03pm WSW 22 33 - - - - 10 Partly cloudy - 9.3 1016.2 1.0
19/12:00pm WSW 22 29 - - - - 10 Mostly cloudy Showers 9.9 1016.1 1.0
19/11:30am SW 20 31 - - - - 10 Partly cloudy - 10.0 1016.1 0.6
19/11:02am WSW 23 33 - - - - 10 Partly cloudy - 10.1 1015.9 0.6
19/11:00am WSW 24 33 - - - - 10 Partly cloudy - 10.1 1015.9 0.6
19/10:30am WSW 21 34 - - - - 7 Partly cloudy - 8.0 1015.4 0.6
19/10:00am WSW 21 31 - - - - 10 Partly cloudy - 9.1 1014.8 0.6
19/09:30am SW 19 36 - - - - 10 Partly cloudy - 7.1 1014.6 0.6
19/09:00am SW 18 29 - - - - 10 Cloudy Showers 7.7 1013.9 12.8
19/08:37am WSW 21 32 - - - - 10 Partly cloudy - 6.6 1013.5 12.6
19/08:30am WSW 20 28 - - - - 10 Partly cloudy - 7.8 1013.4 12.4
19/08:13am SW 21 34 - - - - 10 Partly cloudy - 6.5 1013.3 12.4
19/08:00am WSW 26 41 - - - - 5 Partly cloudy - 6.4 1013.3 12.2
19/07:57am WSW 26 41 - - - - 5 Partly cloudy - 6.3 1013.2 12.0
19/07:50am WSW 21 32 - - - - 10 Partly cloudy - 8.4 1012.7 11.8
19/07:30am WSW 22 30 - - - - 10 Partly cloudy - 8.1 1012.1 11.8
19/07:00am WSW 23 34 - - - - 10 Partly cloudy - 8.0 1011.4 11.8
19/06:46am SW 21 31 - - - - 10 Partly cloudy - 7.3 1011.2 11.8
19/06:30am SW 21 30 - - - - 10 Partly cloudy - 7.2 1010.9 11.8
19/06:00am WSW 16 31 - - - - 10 Cloudy Showers 6.3 1010.5 10.8
19/05:34am SW 19 30 - - - - 10 Partly cloudy - 7.3 1010.1 10.8
19/05:30am WSW 19 27 - - - - 10 Partly cloudy - 7.7 1009.9 10.8
19/05:11am WSW 17 29 - - - - 10 Partly cloudy - 7.8 1009.5 10.8
19/05:00am W 18 25 - - - - 10 Partly cloudy - 7.4 1009.6 10.8
19/04:52am WSW 19 26 - - - - 10 Partly cloudy - 7.2 1009.5 10.8
19/04:36am SW 22 32 - - - - 10 Partly cloudy - 6.5 1009.5 10.8
19/04:30am SW 23 32 - - - - 10 Partly cloudy - 7.0 1009.4 10.6
19/04:04am WSW 23 33 - - - - 10 Partly cloudy - 8.0 1009.0 10.6
19/04:00am WSW 23 31 - - - - 10 Partly cloudy - 8.0 1009.0 10.6
19/03:41am WSW 19 29 - - - - 10 Partly cloudy - 7.8 1008.9 10.6
19/03:30am SW 19 26 - - - - 10 Partly cloudy - 7.9 1008.6 10.6
19/03:10am SW 21 31 - - - - 10 Partly cloudy - 8.0 1008.4 10.6
19/03:00am SW 21 30 - - - - 10 Cloudy Rain 8.2 1008.3 10.6
19/02:30am WSW 23 38 - - - - 10 Partly cloudy - 6.7 1008.9 10.6
19/02:05am SW 20 30 - - - - 10 Partly cloudy - 7.6 1008.2 10.6
19/02:00am SW 20 29 - - - - 10 Partly cloudy - 7.7 1008.1 10.6
19/01:35am WSW 21 33 - - - - 10 Partly cloudy - 8.2 1007.8 10.4
19/01:30am WSW 21 30 - - - - 10 Partly cloudy - 8.5 1007.8 10.4
19/01:00am SW 19 29 - - - - 10 Partly cloudy - 7.9 1007.7 10.4
19/12:55am SW 21 31 - - - - 10 Partly cloudy - 8.0 1007.7 10.4
19/12:30am SW 22 31 - - - - 10 Partly cloudy - 8.8 1007.1 10.4
19/12:00am SW 23 32 - - - - 10 Mostly cloudy - 8.6 1007.0 10.4
 
Date/Time
EST
Wind Sea
Height
m
Swell Vis
km
Cloud Weather Temp
°C
Press
hPa
Rain since
9am
mm
Dir  Spd
kts
Gust
kts
Height
m
Period
s
Dir
18/11:56pm SW 21 32 - - - - 10 Partly cloudy - 8.6 1007.0 10.4
18/11:30pm SW 20 29 - - - - 10 Partly cloudy - 8.5 1006.6 10.4
18/11:23pm SW 17 28 - - - - 10 Partly cloudy - 8.4 1006.4 10.4
18/11:00pm SW 22 35 - - - - 8 Partly cloudy - 7.1 1006.4 10.4
18/10:43pm SW 19 32 - - - - 10 Partly cloudy - 8.7 1006.0 10.2
18/10:30pm SW 20 28 - - - - 10 Partly cloudy - 8.9 1005.7 10.2
18/10:00pm SW 22 29 - - - - 10 Partly cloudy - 8.8 1005.1 10.2
18/09:30pm SW 22 32 - - - - 10 Partly cloudy - 8.7 1004.6 10.2
18/09:26pm SW 21 32 - - - - 10 Partly cloudy - 8.6 1004.5 10.2
18/09:20pm SW 20 27 - - - - 10 Partly cloudy - 8.3 1004.5 10.2
18/09:10pm WSW 20 30 - - - - 5 Partly cloudy - 7.7 1004.3 10.2
18/09:03pm WSW 15 30 - - - - 5 Partly cloudy - 7.3 1004.4 10.0
18/09:00pm WSW 12 26 - - - - 10 Cloudy Rain 7.7 1004.5 9.2
18/08:30pm SW 17 27 - - - - 10 Partly cloudy - 7.9 1004.4 8.2
18/08:26pm SW 18 28 - - - - 10 Partly cloudy - 7.9 1004.2 7.8
18/08:00pm SW 12 21 - - - - 10 Partly cloudy - 8.3 1003.4 7.6
18/07:30pm SSW 12 16 - - - - 10 Partly cloudy - 7.9 1003.0 7.0
18/07:00pm SSW 11 17 - - - - 10 Partly cloudy - 7.7 1002.7 6.8
18/06:30pm SSW 17 23 - - - - 10 Partly cloudy - 7.6 1002.2 6.6
18/06:00pm SSW 14 20 - - - - 10 Cloudy Rain 8.3 1001.8 6.0
18/05:30pm SW 14 19 - - - - 7 Partly cloudy - 8.7 1001.5 5.2
18/05:07pm WSW 13 21 - - - - 5 Partly cloudy - 8.9 1001.1 2.8
18/05:00pm WNW 14 19 - - - - 8 Partly cloudy - 9.2 1000.7 2.2
18/04:30pm NW 14 18 - - - - 10 Partly cloudy - 10.6 1000.1 1.4
18/04:00pm NW 15 20 - - - - 10 Partly cloudy - 10.4 1000.2 1.4
18/03:30pm WNW 19 29 - - - - 9 Partly cloudy - 10.1 1000.4 1.2
18/03:29pm WNW 18 29 - - - - 10 Partly cloudy - 10.1 1000.4 1.2
18/03:00pm WNW 19 27 - - - - 9 Cloudy Rain 10.0 1000.5 1.2
18/02:50pm NW 23 45 - - - - 10 Partly cloudy - 10.1 1000.5 1.2
18/02:47pm NNW 23 45 - - - - 10 Partly cloudy - 10.6 1000.5 1.2
18/02:45pm NNW 20 45 - - - - 10 Partly cloudy - 11.8 1000.0 1.2
18/02:30pm N 18 23 - - - - 10 Partly cloudy - 12.0 1000.1 1.2
18/02:17pm N 18 28 - - - - 10 Cloudy - 12.0 1000.3 1.2
18/02:00pm N 16 23 - - - - 10 Partly cloudy - 11.5 1000.5 1.2
18/01:30pm N 14 19 - - - - 10 Partly cloudy - 11.2 1000.9 1.2
18/01:00pm N 14 19 - - - - 10 Partly cloudy - 10.9 1001.3 1.2
18/12:30pm N 11 16 - - - - 10 Partly cloudy - 10.7 1002.0 1.0
18/12:00pm NNW 12 16 - - - - 10 Cloudy Showers 11.0 1003.1 0.6
18/11:30am NW 15 19 - - - - 10 Partly cloudy - 11.4 1003.7 0.2
18/11:00am NNW 18 22 - - - - 10 Partly cloudy - 11.9 1004.2 0.0
18/10:30am NW 22 27 - - - - 10 Partly cloudy - 12.0 1004.0 0.0
18/10:00am NNW 16 23 - - - - 10 Cloudy - 12.5 1004.3 0.0
18/09:30am N 16 21 - - - - 10 Partly cloudy - 12.8 1004.2 0.0
18/09:00am N 13 17 - - - - 10 Cloudy - 12.3 1004.5 0.2
18/08:30am N 11 15 - - - - 10 - - 11.8 1004.9 0.2
18/08:00am NNE 7 8 - - - - 10 - - 10.0 1005.0 0.2
18/07:30am NE 7 9 - - - - 10 - - 10.2 1005.0 0.2
18/07:00am NE 7 9 - - - - 10 Partly cloudy - 10.2 1005.3 0.2
18/06:30am NNE 8 11 - - - - 10 Partly cloudy - 10.7 1005.8 0.2
18/06:00am NNE 10 14 - - - - 10 Cloudy Showers 10.7 1006.1 0.2
18/05:30am NNE 13 18 - - - - 10 Partly cloudy - 11.0 1006.2 0.2
18/05:00am NE 11 13 - - - - 10 Partly cloudy - 10.6 1006.4 0.2
18/04:30am NNE 11 16 - - - - 10 Partly cloudy - 10.2 1006.9 0.2
18/04:00am NNE 13 16 - - - - 10 - - 10.3 1007.1 0.2
18/03:30am NNE 13 16 - - - - 10 - - 10.6 1007.6 0.2
18/03:00am NNE 13 17 - - - - 10 Cloudy - 10.7 1008.5 0.2
18/02:30am NNE 13 19 - - - - 10 Partly cloudy - 10.7 1009.4 0.2
18/02:00am NNE 12 19 - - - - 10 Partly cloudy - 10.6 1009.5 0.2
18/01:30am NNE 13 16 - - - - 10 Partly cloudy - 10.3 1009.5 0.2
18/01:00am NNE 13 16 - - - - 10 Partly cloudy - 9.9 1010.2 0.2
18/12:30am NNE 12 17 - - - - 10 Partly cloudy - 9.9 1011.2 0.2
18/12:00am NE 11 13 - - - - 10 Mostly clear - 9.9 1011.7 0.2
 
Date/Time
EST
Wind Sea
Height
m
Swell Vis
km
Cloud Weather Temp
°C
Press
hPa
Rain since
9am
mm
Dir  Spd
kts
Gust
kts
Height
m
Period
s
Dir
17/11:30pm NE 11 15 - - - - 10 - - 10.1 1012.3 0.2
17/11:00pm NE 10 14 - - - - 10 - - 10.1 1012.7 0.2
17/10:30pm NE 11 14 - - - - 10 - - 10.2 1013.1 0.2
17/10:00pm NE 11 16 - - - - 10 - - 10.0 1013.4 0.2
17/09:30pm NE 10 14 - - - - 10 - - 9.6 1014.0 0.2
17/09:00pm NE 10 15 - - - - 10 - - 9.4 1014.4 0.2
17/08:30pm NE 11 14 - - - - 10 - - 9.2 1014.9 0.2
17/08:00pm NE 11 13 - - - - 10 - - 9.0 1015.5 0.2
17/07:30pm NE 10 12 - - - - 10 - - 9.0 1015.7 0.2
17/07:00pm ENE 11 17 - - - - 10 - - 8.9 1015.2 0.2
17/06:30pm ENE 11 15 - - - - 10 - - 8.9 1015.5 0.2
17/06:00pm NE 9 13 - - - - 10 - - 9.2 1015.7 0.2
17/05:30pm NE 11 14 - - - - 10 - - 10.2 1016.0 0.2
17/05:00pm NE 12 16 - - - - 10 - - 10.9 1016.4 0.2
17/04:30pm NNE 13 16 - - - - 10 - - 11.6 1016.8 0.2
17/04:00pm NNE 13 17 - - - - 10 - - 12.1 1017.0 0.2
17/03:30pm NNE 13 17 - - - - 10 Partly cloudy - 12.4 1017.1 0.2
17/03:00pm NNE 13 18 - - - - 10 Cloudy - 13.3 1017.4 0.2
17/02:30pm NNE 13 19 - - - - 10 Cloudy - 12.2 1017.7 0.2
17/02:00pm NNE 13 16 - - - - 10 Cloudy - 12.0 1017.9 0.2
17/01:30pm NNE 13 16 - - - - 10 Cloudy - 12.1 1018.5 0.2
17/01:00pm NNE 12 16 - - - - 10 Cloudy - 12.1 1019.0 0.2
17/12:30pm NNE 11 15 - - - - 10 Cloudy - 12.1 1019.4 0.2
17/12:00pm NNE 11 17 - - - - 10 Partly cloudy Recent precip. 12.4 1019.7 0.2
17/11:30am NNE 11 14 - - - - 10 Partly cloudy - 12.6 1020.3 0.2
17/11:00am NNE 9 14 - - - - 10 Partly cloudy - 12.8 1020.4 0.0
17/10:30am NE 10 13 - - - - 10 - - 11.8 1020.6 0.0
17/10:00am NE 9 13 - - - - 10 - - 11.2 1020.9 0.0
17/09:30am NE 7 8 - - - - 10 - - 10.5 1021.2 0.0
17/09:00am ENE 5 6 - - - - 10 - - 9.6 1021.4 1.6
17/08:30am ESE 5 6 - - - - 10 Partly cloudy - 8.0 1021.4 1.6
17/08:00am ENE 4 5 - - - - 10 Cloudy - 6.8 1021.3 1.6
17/07:30am ESE 4 4 - - - - 10 Partly cloudy - 5.2 1021.1 1.6
17/07:00am E 4 5 - - - - 9 Partly cloudy - 5.6 1020.9 1.6
17/06:30am ESE 5 6 - - - - 10 Partly cloudy - 5.7 1020.7 1.6
17/06:00am ESE 5 6 - - - - 10 Mostly clear Recent precip. 5.3 1020.5 1.6
17/05:30am ESE 5 6 - - - - 10 Partly cloudy - 5.3 1020.2 1.6
17/05:00am ESE 3 4 - - - - 6 Partly cloudy - 6.0 1020.2 1.6
17/04:30am ENE 2 4 - - - - 10 Partly cloudy - 4.8 1020.2 1.6

Other formats

Comma delimited format used in spreadsheet applications
http://www.bom.gov.au/fwo/IDT60701/IDT60701.94850.axf

JavaScript Object Notation format (JSON) in row-major order
http://www.bom.gov.au/fwo/IDT60701/IDT60701.94850.json

Data quality

Most of these data are generated automatically and are frequently updated. Quality checks on data are not normally performed. It is possible for incorrect values to appear. Refer to information at About Latest Weather Observations and please check the disclaimer before using these data.